createdAt,value
2022-11-14T00:02:32.145Z,22.77
2022-11-14T00:05:21.209Z,23.80
2022-11-14T00:08:18.338Z,23.25
2022-11-14T00:11:06.134Z,23.25
2022-11-14T00:13:55.738Z,23.13
2022-11-14T00:16:43.433Z,22.63
2022-11-14T00:19:31.158Z,21.90
2022-11-14T00:22:18.501Z,24.08
2022-11-14T00:25:06.915Z,22.95
2022-11-14T00:27:57.649Z,22.33
2022-11-14T00:30:50.035Z,22.63
2022-11-14T00:33:37.990Z,21.60
2022-11-14T00:36:25.402Z,22.05
2022-11-14T00:39:14.483Z,20.35
2022-11-14T00:42:01.995Z,22.55
2022-11-14T00:44:49.578Z,20.77
2022-11-14T00:47:38.777Z,23.55
2022-11-14T00:50:26.303Z,23.23
2022-11-14T00:53:14.286Z,24.33
2022-11-14T00:56:01.708Z,23.23
2022-11-14T00:58:49.161Z,24.45
2022-11-14T01:01:38.596Z,23.75
2022-11-14T01:04:27.184Z,22.15
2022-11-14T01:07:14.646Z,23.02
2022-11-14T01:10:02.261Z,23.77
2022-11-14T01:12:50.485Z,23.55
2022-11-14T01:15:41.554Z,24.90
2022-11-14T01:18:29.624Z,25.17
2022-11-14T01:21:19.340Z,24.27
2022-11-14T01:24:08.329Z,25.38
2022-11-14T01:26:56.957Z,23.38
2022-11-14T01:29:44.787Z,22.35
2022-11-14T01:32:32.575Z,23.48
2022-11-14T01:35:20.415Z,23.77
2022-11-14T01:38:13.282Z,22.63
2022-11-14T01:41:01.431Z,22.25
2022-11-14T01:46:40.165Z,23.23
2022-11-14T01:49:37.268Z,23.08
2022-11-14T01:52:29.253Z,22.40
2022-11-14T01:55:18.508Z,21.63
2022-11-14T01:58:06.124Z,22.23
2022-11-14T02:00:53.610Z,22.60
2022-11-14T02:03:45.323Z,22.65
2022-11-14T02:06:33.462Z,22.38
2022-11-14T02:12:13.952Z,25.80
2022-11-14T02:15:03.606Z,23.77
2022-11-14T02:17:51.333Z,23.00
2022-11-14T02:20:43.381Z,22.42
2022-11-14T02:23:33.730Z,22.48
2022-11-14T02:26:23.928Z,21.67
2022-11-14T02:29:12.697Z,22.55
2022-11-14T02:32:00.869Z,21.17
2022-11-14T02:34:48.666Z,22.77
2022-11-14T02:37:38.084Z,21.77
2022-11-14T02:40:25.666Z,21.75
2022-11-14T02:43:13.593Z,21.95
2022-11-14T02:46:05.652Z,22.58
2022-11-14T02:48:53.668Z,20.98
2022-11-14T02:51:41.984Z,18.73
2022-11-14T02:54:31.084Z,18.35
2022-11-14T02:57:18.726Z,16.92
2022-11-14T03:00:14.390Z,19.17
2022-11-14T03:03:02.996Z,18.20
2022-11-14T03:05:52.335Z,19.67
2022-11-14T03:08:40.162Z,19.50
2022-11-14T03:11:29.106Z,17.67
2022-11-14T03:14:16.899Z,18.17
2022-11-14T03:17:04.975Z,16.05
2022-11-14T03:22:39.870Z,18.45
2022-11-14T03:25:27.758Z,21.63
2022-11-14T03:28:16.994Z,21.50
2022-11-14T03:31:05.583Z,22.67
2022-11-14T03:33:53.525Z,20.45
2022-11-14T03:39:29.375Z,20.35
2022-11-14T03:42:16.582Z,20.10
2022-11-14T03:45:07.034Z,20.80
2022-11-14T03:47:56.214Z,20.83
2022-11-14T03:50:44.834Z,22.17
2022-11-14T03:53:32.458Z,22.73
2022-11-14T03:56:20.217Z,24.10
2022-11-14T03:59:08.174Z,21.17
2022-11-14T04:01:57.619Z,22.67
2022-11-14T04:04:45.399Z,23.23
2022-11-14T04:07:32.966Z,21.27
2022-11-14T04:10:20.924Z,19.85
2022-11-14T04:15:57.478Z,20.95
2022-11-14T04:18:46.841Z,20.45
2022-11-14T04:21:34.222Z,22.67
2022-11-14T04:24:21.919Z,23.88
2022-11-14T04:27:09.375Z,23.90
2022-11-14T04:29:56.746Z,23.83
2022-11-14T04:35:37.048Z,20.35
2022-11-14T04:38:24.995Z,21.77
2022-11-14T04:43:59.663Z,24.17
2022-11-14T04:46:47.444Z,24.75
2022-11-14T04:49:35.380Z,24.33
2022-11-14T04:52:24.476Z,25.05
2022-11-14T04:55:12.114Z,25.15
2022-11-14T04:58:00.068Z,23.98
2022-11-14T05:00:47.555Z,24.77
2022-11-14T05:03:35.546Z,24.08
2022-11-14T05:06:23.431Z,23.60
2022-11-14T05:09:12.678Z,25.50
2022-11-14T05:12:00.589Z,25.98
2022-11-14T05:14:48.809Z,24.95
2022-11-14T05:17:36.474Z,24.80
2022-11-14T05:20:23.737Z,25.67
2022-11-14T05:23:22.369Z,25.90
2022-11-14T05:26:14.523Z,26.15
2022-11-14T05:29:02.419Z,28.77
2022-11-14T05:31:49.858Z,27.73
2022-11-14T05:34:37.607Z,27.40
2022-11-14T05:37:25.156Z,27.58
2022-11-14T05:40:13.455Z,28.85
2022-11-14T05:43:02.264Z,35.17
2022-11-14T05:45:49.981Z,36.55
2022-11-14T05:48:38.525Z,29.13
2022-11-14T05:51:26.384Z,26.73
2022-11-14T05:57:01.255Z,24.65
2022-11-14T05:59:50.494Z,24.83
2022-11-14T06:02:38.391Z,23.10
2022-11-14T06:05:26.128Z,23.77
2022-11-14T06:08:14.009Z,23.02
2022-11-14T06:11:05.058Z,24.83
2022-11-14T06:13:53.066Z,26.48
2022-11-14T06:16:42.211Z,26.23
2022-11-14T06:19:29.832Z,24.88
2022-11-14T06:22:17.749Z,24.65
2022-11-14T06:25:05.892Z,23.80
2022-11-14T06:27:53.552Z,22.98
2022-11-14T06:30:41.459Z,26.63
2022-11-14T06:33:35.640Z,25.25
2022-11-14T06:36:23.037Z,26.42
2022-11-14T06:39:10.681Z,24.67
2022-11-14T06:44:45.659Z,23.95
2022-11-14T06:47:33.248Z,26.02
2022-11-14T06:50:22.283Z,26.95
2022-11-14T06:53:10.142Z,25.50
2022-11-14T06:55:59.893Z,23.23
2022-11-14T06:58:50.422Z,21.60
2022-11-14T07:01:37.921Z,22.05
2022-11-14T07:04:25.270Z,22.08
2022-11-14T07:07:14.220Z,24.75
2022-11-14T07:10:02.224Z,22.23
2022-11-14T07:15:38.105Z,23.63
2022-11-14T07:18:26.141Z,21.90
2022-11-14T07:21:14.567Z,19.60
2022-11-14T07:24:03.936Z,20.13
2022-11-14T07:26:57.868Z,21.02
2022-11-14T07:29:45.639Z,23.77
2022-11-14T07:32:33.321Z,30.50
2022-11-14T07:35:21.094Z,24.45
2022-11-14T07:38:08.413Z,25.45
2022-11-14T07:41:00.068Z,24.13
2022-11-14T07:43:48.333Z,24.65
2022-11-14T07:46:35.844Z,25.17
2022-11-14T07:49:23.580Z,25.00
2022-11-14T07:52:10.862Z,23.95
2022-11-14T07:54:58.575Z,23.58
2022-11-14T07:57:49.352Z,22.17
2022-11-14T08:00:38.045Z,22.38
2022-11-14T08:03:26.382Z,21.73
2022-11-14T08:06:17.001Z,21.48
2022-11-14T08:09:06.447Z,27.60
2022-11-14T08:11:54.437Z,23.25
2022-11-14T08:14:43.694Z,22.98
2022-11-14T08:17:31.288Z,22.70
2022-11-14T08:20:18.998Z,25.10
2022-11-14T08:23:07.769Z,25.02
2022-11-14T08:25:59.747Z,24.92
2022-11-14T08:28:47.197Z,23.42
2022-11-14T08:31:36.103Z,25.80
2022-11-14T08:34:23.939Z,26.33
2022-11-14T08:37:11.660Z,26.67
2022-11-14T08:40:00.097Z,26.60
2022-11-14T08:42:47.958Z,25.60
2022-11-14T08:45:35.779Z,23.70
2022-11-14T08:48:25.135Z,23.77
2022-11-14T08:51:13.164Z,22.67
2022-11-14T08:54:01.002Z,24.02
